Time;durP1;ratioP1;P1;durP2;ratioP2;P2;SDS_P1;SDS_P2;PMS_P1;PMS_P2;Temp;Humidity;BMP_temperature;BMP_pressure;BME280_temperature;BME280_humidity;BME280_pressure;Samples;Min_cycle;Max_cycle;Signal;HPM_P1;HPM_P2
2023/12/09 00:00:19;;;;;;;61.88;31.23;;;;;;;1.35;84.96;99579.16;5028926;28;20408;-78
2023/12/09 00:03:07;;;;;;;54.10;28.42;;;;;;;1.27;84.94;99566.84;5028933;28;20055;-78
2023/12/09 00:05:51;;;;;;;56.15;29.58;;;;;;;1.19;84.86;99552.91;5034432;28;20400;-78
2023/12/09 00:08:37;;;;;;;60.97;30.23;;;;;;;1.28;85.03;99586.81;5035296;28;20040;-77
2023/12/09 00:11:23;;;;;;;60.17;31.73;;;;;;;1.17;85.41;99555.72;5013576;28;20044;-79
2023/12/09 00:14:08;;;;;;;63.65;30.40;;;;;;;1.17;85.48;99562.75;5029199;28;20048;-78
2023/12/09 00:16:54;;;;;;;51.47;28.08;;;;;;;1.14;85.24;99580.41;5028833;28;20048;-80
2023/12/09 00:19:39;;;;;;;51.28;25.58;;;;;;;1.12;85.18;99581.53;5035101;28;20068;-79
2023/12/09 00:22:24;;;;;;;46.70;22.95;;;;;;;1.15;84.81;99589.06;5027038;28;20051;-78
2023/12/09 00:25:10;;;;;;;48.53;23.55;;;;;;;1.05;85.38;99570.06;5027865;28;20043;-78
2023/12/09 00:27:55;;;;;;;41.85;22.80;;;;;;;1.05;85.78;99577.94;5028331;28;20052;-80
2023/12/09 00:30:41;;;;;;;44.53;23.35;;;;;;;1.07;85.55;99589.06;5033903;28;20443;-79
2023/12/09 00:33:26;;;;;;;43.75;23.70;;;;;;;1.08;85.16;99585.47;5027412;28;20040;-78
2023/12/09 00:36:12;;;;;;;42.60;23.70;;;;;;;1.02;85.00;99573.00;5028969;28;20067;-80
2023/12/09 00:38:58;;;;;;;43.03;22.75;;;;;;;1.01;84.68;99566.97;5027670;28;20063;-78
2023/12/09 00:41:43;;;;;;;39.65;23.15;;;;;;;1.09;85.38;99579.25;5035729;28;20400;-78
2023/12/09 00:44:29;;;;;;;67.82;33.75;;;;;;;1.14;85.13;99585.66;5027981;28;20400;-78
2023/12/09 00:47:14;;;;;;;78.47;36.78;;;;;;;1.04;85.76;99569.25;5028177;28;20075;-77
2023/12/09 00:50:00;;;;;;;73.57;35.25;;;;;;;1.12;85.41;99578.91;5027775;28;20052;-79
2023/12/09 00:52:45;;;;;;;67.35;33.55;;;;;;;1.10;85.84;99573.06;5034762;28;20044;-78
2023/12/09 00:55:31;;;;;;;62.45;31.80;;;;;;;1.08;85.75;99564.53;5028681;28;20060;-77
2023/12/09 00:58:16;;;;;;;68.22;33.40;;;;;;;1.07;85.91;99576.78;5027607;28;20044;-79
2023/12/09 01:01:03;;;;;;;81.20;35.47;;;;;;;1.11;85.67;99591.19;5027686;28;20052;-77
2023/12/09 01:03:48;;;;;;;72.82;33.80;;;;;;;0.95;86.12;99564.97;5034173;28;20476;-78
2023/12/09 01:06:34;;;;;;;66.55;32.55;;;;;;;1.06;85.87;99585.59;5020372;28;20064;-78
2023/12/09 01:09:19;;;;;;;64.18;32.70;;;;;;;1.04;86.47;99581.53;5035595;28;20412;-79
2023/12/09 01:12:05;;;;;;;59.92;29.70;;;;;;;0.97;86.35;99576.09;5027716;28;20068;-79
2023/12/09 01:14:50;;;;;;;66.35;32.03;;;;;;;0.91;86.75;99582.81;5033866;28;20412;-79
2023/12/09 01:17:35;;;;;;;63.75;32.95;;;;;;;0.93;86.33;99578.22;5020383;28;20411;-78
2023/12/09 01:20:21;;;;;;;67.40;33.53;;;;;;;0.91;86.99;99574.97;5035037;28;20367;-78
2023/12/09 01:23:07;;;;;;;66.00;34.67;;;;;;;0.82;87.21;99562.81;5035292;28;20476;-79
2023/12/09 01:25:52;;;;;;;67.30;35.33;;;;;;;0.82;87.04;99568.06;5033816;28;20056;-78
2023/12/09 01:28:37;;;;;;;66.38;35.30;;;;;;;0.81;87.07;99563.78;5020024;28;20384;-79
2023/12/09 01:31:23;;;;;;;66.20;33.38;;;;;;;0.85;87.69;99572.97;5034438;28;20068;-78
2023/12/09 01:34:08;;;;;;;65.05;33.70;;;;;;;0.88;87.41;99577.88;5034067;28;20060;-78
2023/12/09 01:36:54;;;;;;;67.40;33.90;;;;;;;0.79;87.32;99557.91;5028439;28;20068;-77
2023/12/09 01:39:40;;;;;;;70.05;34.17;;;;;;;0.83;87.78;99563.63;5026508;28;20064;-78
2023/12/09 01:42:25;;;;;;;71.40;35.97;;;;;;;0.82;87.66;99562.81;5013841;28;20052;-78
2023/12/09 01:45:11;;;;;;;78.47;39.67;;;;;;;0.70;87.99;99545.78;5037961;28;20048;-79
2023/12/09 01:47:56;;;;;;;89.63;42.83;;;;;;;0.73;88.01;99544.63;5032310;28;20491;-78
2023/12/09 01:50:41;;;;;;;94.13;44.67;;;;;;;0.65;88.64;99530.53;5031953;28;20476;-78
2023/12/09 01:53:31;;;;;;;86.30;39.22;;;;;;;0.65;87.98;99542.78;5030638;28;20396;-78
2023/12/09 01:56:17;;;;;;;90.47;41.65;;;;;;;0.62;88.36;99541.31;5031780;28;20499;-80
2023/12/09 01:59:03;;;;;;;65.75;34.50;;;;;;;0.58;87.79;99552.25;5030687;28;20040;-79
2023/12/09 02:01:55;;;;;;;54.60;27.58;;;;;;;0.54;87.77;99550.94;5023275;28;20040;-78
2023/12/09 02:04:40;;;;;;;50.60;25.35;;;;;;;0.55;87.12;99545.53;5030311;28;20056;-79
2023/12/09 02:07:26;;;;;;;42.80;23.15;;;;;;;0.45;86.79;99545.66;5036690;28;20495;-78
2023/12/09 02:10:11;;;;;;;41.22;21.20;;;;;;;0.42;86.75;99545.97;5037160;28;20044;-79
2023/12/09 02:13:18;;;;;;;41.13;21.70;;;;;;;0.37;86.35;99539.56;5031280;28;20395;-78
2023/12/09 02:16:15;;;;;;;34.55;18.88;;;;;;;0.40;86.28;99558.38;5031520;28;20396;-79
2023/12/09 02:19:03;;;;;;;31.80;18.65;;;;;;;0.30;85.79;99549.84;5036516;28;20405;-78
2023/12/09 02:22:05;;;;;;;33.03;17.95;;;;;;;0.16;85.52;99556.47;5023326;28;20415;-77
2023/12/09 02:24:50;;;;;;;28.88;17.17;;;;;;;0.06;84.79;99555.72;5031088;28;20579;-79
2023/12/09 02:27:47;;;;;;;37.22;22.30;;;;;;;-0.05;84.79;99556.00;5037334;28;20479;-79
2023/12/09 02:30:36;;;;;;;35.33;20.48;;;;;;;-0.12;84.66;99562.81;5029855;28;20396;-78
2023/12/09 02:33:26;;;;;;;30.63;16.20;;;;;;;-0.17;84.30;99558.03;5031296;28;20044;-78
2023/12/09 02:36:17;;;;;;;19.00;12.18;;;;;;;-0.25;84.87;99550.16;5023675;28;20397;-79
2023/12/09 02:39:11;;;;;;;19.75;11.52;;;;;;;-0.26;84.68;99556.34;5030527;28;20563;-78
2023/12/09 02:41:57;;;;;;;18.17;11.20;;;;;;;-0.39;85.22;99548.06;5023098;28;20075;-77
2023/12/09 02:44:43;;;;;;;22.17;13.00;;;;;;;-0.38;85.33;99560.16;5036186;28;20389;-78
2023/12/09 02:47:28;;;;;;;24.55;13.63;;;;;;;-0.39;86.16;99567.19;5031691;28;21341;-78
2023/12/09 02:50:14;;;;;;;36.33;16.80;;;;;;;-0.29;86.98;99570.50;5037288;28;20068;-80
2023/12/09 02:52:59;;;;;;;40.08;22.83;;;;;;;-0.19;87.46;99562.59;5037710;28;20056;-79
2023/12/09 02:55:45;;;;;;;52.60;26.85;;;;;;;-0.27;87.27;99559.94;5037042;28;20067;-79
2023/12/09 02:58:31;;;;;;;31.30;16.42;;;;;;;-0.29;87.44;99547.00;5030682;28;20052;-79
2023/12/09 03:01:16;;;;;;;32.33;16.65;;;;;;;-0.16;86.82;99558.84;5031701;28;20048;-80
2023/12/09 03:04:02;;;;;;;27.45;15.27;;;;;;;-0.10;86.53;99566.91;5036827;28;20060;-78
2023/12/09 03:06:47;;;;;;;28.38;15.40;;;;;;;-0.12;86.81;99558.41;5036473;28;20075;-79
2023/12/09 03:09:33;;;;;;;31.63;16.35;;;;;;;-0.24;86.10;99554.41;5036589;28;20708;-78
2023/12/09 03:12:19;;;;;;;60.63;26.90;;;;;;;-0.21;85.80;99566.34;5030748;28;20411;-79
2023/12/09 03:15:05;;;;;;;51.75;23.98;;;;;;;-0.25;85.74;99571.88;5022231;28;20068;-78
2023/12/09 03:17:50;;;;;;;32.60;17.70;;;;;;;-0.35;86.34;99555.44;5036858;28;20154;-79
2023/12/09 03:20:35;;;;;;;33.88;17.40;;;;;;;-0.37;86.34;99560.03;5022137;28;20067;-80
2023/12/09 03:23:20;;;;;;;34.60;17.52;;;;;;;-0.26;85.83;99566.78;5030465;28;20067;-78
2023/12/09 03:26:16;;;;;;;34.28;18.17;;;;;;;-0.34;86.17;99570.16;5029164;28;20147;-79
2023/12/09 03:29:01;;;;;;;36.15;18.55;;;;;;;-0.32;86.54;99575.22;5035858;28;20479;-78
2023/12/09 03:31:47;;;;;;;33.83;19.70;;;;;;;-0.33;86.67;99577.03;5029244;28;20099;-78
2023/12/09 03:34:32;;;;;;;40.75;19.77;;;;;;;-0.24;86.33;99581.34;5029593;28;20397;-79
2023/12/09 03:37:19;;;;;;;35.47;19.90;;;;;;;-0.21;86.54;99579.41;5030193;28;20052;-78
2023/12/09 03:40:05;;;;;;;43.95;20.80;;;;;;;-0.16;87.04;99583.19;5022149;28;20052;-80
2023/12/09 03:42:50;;;;;;;36.80;19.10;;;;;;;-0.23;86.90;99574.31;5015063;28;20056;-79
2023/12/09 03:45:36;;;;;;;35.67;19.42;;;;;;;-0.19;86.97;99572.22;5021168;28;20579;-79
2023/12/09 03:48:21;;;;;;;40.05;19.15;;;;;;;0.00;86.39;99595.56;5029763;28;20385;-78
2023/12/09 03:51:07;;;;;;;35.58;20.08;;;;;;;0.07;86.24;99593.16;5021394;28;20094;-78
2023/12/09 03:53:53;;;;;;;36.00;20.15;;;;;;;0.04;86.45;99590.84;5029276;28;20780;-79
2023/12/09 03:56:39;;;;;;;39.33;19.45;;;;;;;0.07;85.79;99595.78;5028912;28;20388;-77
2023/12/09 03:59:25;;;;;;;32.03;18.75;;;;;;;0.08;85.42;99595.59;5033525;28;20060;-78
2023/12/09 04:02:10;;;;;;;37.50;19.83;;;;;;;0.08;84.94;99593.00;5028572;28;20063;-79
2023/12/09 04:04:57;;;;;;;33.00;17.27;;;;;;;0.03;85.11;99586.59;5029053;28;20507;-78
2023/12/09 04:07:44;;;;;;;56.92;26.77;;;;;;;0.01;85.02;99578.09;5014701;28;20064;-77
2023/12/09 04:10:30;;;;;;;128.25;44.25;;;;;;;0.03;85.18;99592.63;5029314;28;20052;-78
2023/12/09 04:13:16;;;;;;;149.75;50.60;;;;;;;0.07;85.15;99595.78;5014497;28;20511;-79
2023/12/09 04:16:01;;;;;;;165.90;61.92;;;;;;;0.05;85.84;99593.31;5029399;28;20048;-78
2023/12/09 04:18:47;;;;;;;98.30;40.80;;;;;;;0.03;85.23;99592.63;5014763;28;20052;-78
2023/12/09 04:21:32;;;;;;;50.38;23.98;;;;;;;-0.01;85.00;99589.50;5029364;28;20472;-79
2023/12/09 04:24:18;;;;;;;29.33;15.57;;;;;;;0.05;84.58;99598.53;5027409;28;20056;-78
2023/12/09 04:27:04;;;;;;;19.45;11.38;;;;;;;-0.02;83.56;99598.31;5029009;28;20072;-78
2023/12/09 04:29:49;;;;;;;20.17;11.48;;;;;;;-0.08;82.95;99598.94;5028262;28;20052;-78
2023/12/09 04:32:35;;;;;;;24.13;13.48;;;;;;;-0.10;82.67;99597.44;5020270;28;20067;-79
2023/12/09 04:35:20;;;;;;;27.90;13.23;;;;;;;-0.28;82.66;99605.31;5013990;28;20519;-78
2023/12/09 04:38:05;;;;;;;25.55;13.55;;;;;;;-0.24;82.85;99599.63;5028218;28;20479;-78
2023/12/09 04:40:50;;;;;;;25.02;13.00;;;;;;;-0.32;83.06;99596.13;5027767;28;20396;-78
2023/12/09 04:43:36;;;;;;;22.50;13.32;;;;;;;-0.48;83.73;99586.34;5020961;28;20547;-77
2023/12/09 04:46:21;;;;;;;23.33;12.65;;;;;;;-0.41;83.99;99604.84;5013492;28;20506;-79
2023/12/09 04:49:06;;;;;;;22.70;12.10;;;;;;;-0.49;83.14;99600.38;5027060;28;20407;-78
2023/12/09 04:51:51;;;;;;;19.92;11.07;;;;;;;-0.50;83.28;99601.38;5034177;28;20076;-79
2023/12/09 04:54:38;;;;;;;20.65;12.57;;;;;;;-0.52;82.89;99598.88;5019764;28;20072;-79
2023/12/09 04:57:23;;;;;;;20.50;11.43;;;;;;;-0.48;82.62;99600.22;5035092;28;20434;-78
2023/12/09 05:00:10;;;;;;;22.83;12.32;;;;;;;-0.58;82.77;99585.63;5016820;28;20052;-78
2023/12/09 05:02:56;;;;;;;22.42;12.68;;;;;;;-0.56;83.00;99597.56;5033912;28;20052;-78
2023/12/09 05:05:41;;;;;;;19.40;11.98;;;;;;;-0.52;83.30;99614.56;5034489;28;20423;-78
2023/12/09 05:08:27;;;;;;;20.92;11.93;;;;;;;-0.49;83.00;99613.44;5033550;28;20071;-78
2023/12/09 05:11:13;;;;;;;22.27;13.25;;;;;;;-0.39;82.88;99619.41;5028560;28;20072;-79
2023/12/09 05:13:58;;;;;;;28.38;16.23;;;;;;;-0.38;83.77;99622.84;5027929;28;20043;-79
2023/12/09 05:16:44;;;;;;;30.95;16.65;;;;;;;-0.38;83.56;99615.81;5029992;28;20056;-79
2023/12/09 05:19:29;;;;;;;37.03;19.75;;;;;;;-0.33;84.00;99623.22;5031996;28;20064;-78
2023/12/09 05:22:15;;;;;;;29.33;16.65;;;;;;;-0.34;83.88;99616.34;5032651;28;20052;-79
2023/12/09 05:25:00;;;;;;;41.10;17.77;;;;;;;-0.32;83.53;99617.81;5030555;28;20480;-79
2023/12/09 05:27:45;;;;;;;31.48;17.35;;;;;;;-0.29;83.09;99617.53;5030190;28;20483;-77
2023/12/09 05:30:31;;;;;;;25.77;15.57;;;;;;;-0.35;83.57;99619.91;5037438;28;20048;-78
2023/12/09 05:33:17;;;;;;;34.72;18.15;;;;;;;-0.39;82.32;99619.41;5031481;28;20111;-78
2023/12/09 05:36:03;;;;;;;53.95;26.33;;;;;;;-0.50;83.28;99612.63;5032443;28;20075;-78
2023/12/09 05:38:48;;;;;;;55.28;27.58;;;;;;;-0.56;83.82;99623.66;5037579;28;20522;-77
2023/12/09 05:41:33;;;;;;;55.67;26.55;;;;;;;-0.60;84.85;99627.50;5031623;28;20408;-78
2023/12/09 05:44:19;;;;;;;43.85;24.85;;;;;;;-0.65;85.19;99624.53;5032129;28;20048;-78
2023/12/09 05:47:04;;;;;;;45.08;24.02;;;;;;;-0.66;85.14;99622.88;5031556;28;20468;-79
2023/12/09 05:49:50;;;;;;;45.40;23.98;;;;;;;-0.61;84.94;99635.50;5029995;28;20056;-80
2023/12/09 05:52:35;;;;;;;46.60;24.88;;;;;;;-0.61;85.27;99636.31;5030846;28;20471;-79
2023/12/09 05:55:21;;;;;;;47.72;24.38;;;;;;;-0.75;85.08;99637.66;5037700;28;20051;-78
2023/12/09 05:58:06;;;;;;;45.97;25.05;;;;;;;-0.81;85.77;99634.81;5016408;28;20095;-78
2023/12/09 06:00:51;;;;;;;40.75;21.92;;;;;;;-0.82;85.67;99631.38;5017038;28;20056;-77
2023/12/09 06:03:37;;;;;;;41.75;19.83;;;;;;;-0.85;86.34;99647.31;5030723;28;20511;-78
2023/12/09 06:06:22;;;;;;;38.28;21.33;;;;;;;-0.82;86.44;99643.59;5031404;28;20400;-78
2023/12/09 06:09:09;;;;;;;38.50;23.35;;;;;;;-0.79;85.91;99636.28;5030232;28;20068;-78
2023/12/09 06:11:55;;;;;;;39.90;22.25;;;;;;;-0.81;86.54;99637.44;5031504;28;20214;-77
2023/12/09 06:14:42;;;;;;;51.65;24.70;;;;;;;-0.70;86.35;99643.25;5031354;28;20052;-77
2023/12/09 06:17:27;;;;;;;63.20;33.17;;;;;;;-0.70;86.16;99640.63;5036841;28;20483;-78
2023/12/09 06:20:12;;;;;;;45.13;25.80;;;;;;;-0.59;86.31;99650.06;5030762;28;20052;-78
2023/12/09 06:22:58;;;;;;;88.68;42.05;;;;;;;-0.56;86.42;99646.34;5037189;28;20048;-78
2023/12/09 06:25:44;;;;;;;82.13;40.38;;;;;;;-0.63;86.03;99645.25;5036386;28;20396;-81
2023/12/09 06:28:29;;;;;;;77.28;36.47;;;;;;;-0.48;85.84;99647.22;5029792;28;20064;-79
2023/12/09 06:31:15;;;;;;;88.78;41.10;;;;;;;-0.54;85.11;99644.38;5030043;28;20158;-80
2023/12/09 06:34:00;;;;;;;120.82;45.78;;;;;;;-0.39;85.13;99660.38;5029396;28;20400;-79
2023/12/09 06:36:46;;;;;;;134.70;48.13;;;;;;;-0.38;84.76;99652.38;5031424;28;20464;-79
2023/12/09 06:39:31;;;;;;;84.65;36.13;;;;;;;-0.47;83.94;99658.47;5031324;28;20037;-80
2023/12/09 06:42:17;;;;;;;81.13;35.97;;;;;;;-0.41;84.01;99652.66;5030132;28;20048;-78
2023/12/09 06:45:03;;;;;;;89.28;36.75;;;;;;;-0.20;84.16;99660.22;5029520;28;20144;-81
2023/12/09 06:47:48;;;;;;;71.78;30.98;;;;;;;-0.14;84.00;99645.75;5036737;28;20395;-81
2023/12/09 06:50:34;;;;;;;49.80;24.85;;;;;;;-0.02;83.25;99663.66;5028405;28;20059;-78
2023/12/09 06:53:19;;;;;;;48.13;23.15;;;;;;;0.03;83.50;99654.53;5028827;28;20483;-78
2023/12/09 06:56:06;;;;;;;61.08;30.10;;;;;;;0.12;82.89;99662.28;5030196;28;20052;-79
2023/12/09 06:58:52;;;;;;;46.13;23.15;;;;;;;0.02;82.65;99663.34;5022233;28;20112;-78
2023/12/09 07:01:37;;;;;;;46.80;24.25;;;;;;;0.07;82.74;99661.09;5029044;28;20496;-79
2023/12/09 07:04:23;;;;;;;36.22;19.30;;;;;;;-0.10;81.80;99660.94;5035230;28;20416;-79
2023/12/09 07:07:09;;;;;;;36.13;20.15;;;;;;;0.03;82.05;99664.97;5021949;28;20078;-79
2023/12/09 07:09:55;;;;;;;43.20;20.55;;;;;;;0.01;81.81;99665.13;5036918;28;20047;-79
2023/12/09 07:12:41;;;;;;;50.72;24.35;;;;;;;0.10;81.99;99668.66;5030745;28;20048;-79
2023/12/09 07:15:26;;;;;;;43.17;21.58;;;;;;;-0.17;81.50;99646.03;5028292;28;20044;-78
2023/12/09 07:18:11;;;;;;;51.15;25.35;;;;;;;0.20;81.67;99677.22;5033079;28;20064;-79
2023/12/09 07:20:57;;;;;;;47.33;25.17;;;;;;;-0.03;81.58;99669.84;5029543;28;20068;-78
2023/12/09 07:23:43;;;;;;;55.70;26.30;;;;;;;0.30;81.93;99682.34;5028855;28;20396;-79
2023/12/09 07:26:28;;;;;;;52.20;26.70;;;;;;;0.19;81.62;99662.53;5028833;28;20052;-78
2023/12/09 07:29:14;;;;;;;50.08;26.00;;;;;;;0.49;81.29;99686.56;5029465;28;20500;-78
2023/12/09 07:32:00;;;;;;;50.05;25.30;;;;;;;0.64;78.88;99671.97;5029901;28;20048;-78
2023/12/09 07:34:45;;;;;;;59.05;28.38;;;;;;;0.60;79.39;99678.47;5036074;28;20051;-77
2023/12/09 07:37:30;;;;;;;61.88;28.27;;;;;;;0.82;79.53;99677.94;5035205;28;20495;-78
2023/12/09 07:40:15;;;;;;;31.92;17.27;;;;;;;0.86;78.03;99670.59;5020150;28;20055;-79
2023/12/09 07:43:02;;;;;;;37.80;18.27;;;;;;;0.69;78.10;99678.38;5021486;28;20068;-78
2023/12/09 07:45:47;;;;;;;34.97;19.65;;;;;;;0.88;78.33;99684.34;5020955;28;20040;-78
2023/12/09 07:48:32;;;;;;;48.13;21.30;;;;;;;0.60;79.33;99676.69;5028181;28;20130;-79
2023/12/09 07:51:17;;;;;;;41.35;22.95;;;;;;;0.89;79.44;99697.28;5020853;28;20416;-79
2023/12/09 07:54:02;;;;;;;34.92;18.15;;;;;;;0.95;78.63;99698.47;5014456;28;20487;-78
2023/12/09 07:56:48;;;;;;;28.42;15.15;;;;;;;0.80;78.18;99692.97;5020462;28;20415;-79
2023/12/09 07:59:33;;;;;;;43.35;20.95;;;;;;;1.06;78.36;99695.53;5015016;28;20492;-78
2023/12/09 08:02:19;;;;;;;32.88;16.15;;;;;;;1.11;77.35;99687.25;5035087;28;20484;-77
2023/12/09 08:05:06;;;;;;;27.98;15.98;;;;;;;1.24;75.34;99690.22;5020477;28;20400;-79
2023/12/09 08:07:51;;;;;;;31.33;17.60;;;;;;;1.60;73.87;99696.09;5027516;28;20056;-78
2023/12/09 08:10:36;;;;;;;8.75;5.97;;;;;;;1.74;72.19;99699.88;5035201;28;20052;-78
2023/12/09 08:13:21;;;;;;;25.13;13.55;;;;;;;1.73;73.69;99697.41;5027871;28;20040;-79
2023/12/09 08:16:07;;;;;;;29.85;16.73;;;;;;;2.07;74.29;99699.94;5029361;28;20052;-80
2023/12/09 08:18:53;;;;;;;26.90;14.98;;;;;;;1.91;72.90;99689.41;5021095;28;20079;-79
2023/12/09 08:21:38;;;;;;;36.38;16.63;;;;;;;2.36;72.03;99711.72;5020306;28;20404;-78
2023/12/09 08:24:24;;;;;;;27.52;13.70;;;;;;;2.25;71.58;99703.19;5014470;28;20404;-80
2023/12/09 08:27:09;;;;;;;17.38;9.70;;;;;;;2.06;72.37;99706.94;5027877;28;20048;-77
2023/12/09 08:29:55;;;;;;;30.25;15.18;;;;;;;2.47;73.47;99701.69;5027060;28;20480;-80
2023/12/09 08:32:41;;;;;;;31.70;17.70;;;;;;;2.55;72.58;99709.56;5026745;28;20055;-79
2023/12/09 08:35:26;;;;;;;44.60;18.95;;;;;;;2.94;71.74;99708.00;5027613;28;20063;-80
2023/12/09 08:38:11;;;;;;;30.40;16.67;;;;;;;2.84;71.92;99708.19;5026071;28;20076;-82
2023/12/09 08:40:56;;;;;;;36.22;19.75;;;;;;;2.92;71.39;99707.38;5014543;28;20052;-79
2023/12/09 08:43:42;;;;;;;36.58;17.20;;;;;;;2.94;70.99;99703.56;5034236;28;20060;-80
2023/12/09 08:46:29;;;;;;;34.17;19.63;;;;;;;2.98;71.60;99699.66;5026400;28;20072;-80
2023/12/09 08:49:14;;;;;;;31.17;16.98;;;;;;;2.68;72.09;99695.13;5034865;28;20393;-79
2023/12/09 08:51:59;;;;;;;34.17;19.17;;;;;;;2.59;72.70;99702.19;5026960;28;20063;-81
2023/12/09 08:54:45;;;;;;;34.53;18.42;;;;;;;2.71;72.19;99697.41;5005724;28;20060;-81
2023/12/09 08:57:30;;;;;;;37.53;19.50;;;;;;;3.08;71.75;99702.06;5034351;28;20384;-79
2023/12/09 09:00:20;;;;;;;29.65;16.75;;;;;;;2.78;72.75;99698.38;5029262;28;20432;-81
2023/12/09 09:03:06;;;;;;;45.75;22.20;;;;;;;2.90;72.19;99696.22;5029115;28;20528;-80
2023/12/09 09:05:51;;;;;;;38.45;20.08;;;;;;;2.98;72.42;99680.44;5012922;28;20044;-80
2023/12/09 09:08:37;;;;;;;39.47;22.17;;;;;;;3.29;72.68;99695.41;5027691;28;20483;-80
2023/12/09 09:11:22;;;;;;;38.05;21.83;;;;;;;3.73;70.89;99682.56;5019818;28;20044;-80
2023/12/09 09:14:07;;;;;;;38.10;22.08;;;;;;;3.80;70.34;99678.22;5034990;28;20052;-79
2023/12/09 09:16:52;;;;;;;42.75;23.55;;;;;;;3.74;71.17;99672.84;5029646;28;20056;-82
2023/12/09 09:19:37;;;;;;;42.55;24.05;;;;;;;4.18;70.54;99680.91;5025142;28;20064;-82
2023/12/09 09:22:23;;;;;;;57.83;30.85;;;;;;;4.51;69.31;99672.72;5027722;28;20543;-82
2023/12/09 09:25:09;;;;;;;44.50;25.50;;;;;;;4.38;70.96;99675.94;5034293;28;20052;-81
2023/12/09 09:27:54;;;;;;;52.70;27.48;;;;;;;4.56;68.94;99673.00;5028910;28;20099;-80
2023/12/09 09:30:42;;;;;;;39.83;23.40;;;;;;;4.56;68.19;99673.81;5020482;28;20429;-80
2023/12/09 09:33:27;;;;;;;45.85;26.17;;;;;;;4.56;69.25;99665.91;5039764;28;20048;-81
2023/12/09 09:36:13;;;;;;;38.75;22.67;;;;;;;4.62;67.96;99661.75;5042079;28;20039;-80
2023/12/09 09:38:58;;;;;;;42.33;25.33;;;;;;;4.28;69.15;99649.09;5032625;28;20044;-79
2023/12/09 09:41:54;;;;;;;39.65;22.65;;;;;;;4.73;68.87;99657.84;5031558;28;20044;-81
2023/12/09 09:44:44;;;;;;;33.30;21.00;;;;;;;4.74;68.57;99656.88;5030794;28;20408;-80
2023/12/09 09:47:29;;;;;;;34.03;21.20;;;;;;;4.91;66.23;99644.31;5022085;28;20048;-79
2023/12/09 09:50:19;;;;;;;43.70;23.83;;;;;;;4.58;68.53;99634.16;5035192;28;20416;-80
2023/12/09 09:53:07;;;;;;;38.85;22.50;;;;;;;4.64;68.59;99629.00;5028877;28;20408;-80
2023/12/09 09:55:53;;;;;;;35.47;20.63;;;;;;;4.07;67.95;99629.53;5027920;28;20068;-81
2023/12/09 09:58:40;;;;;;;33.13;20.65;;;;;;;4.05;68.02;99623.63;5029132;28;20063;-78
2023/12/09 10:01:26;;;;;;;38.28;21.98;;;;;;;4.52;68.05;99634.88;5013471;28;20048;-79
2023/12/09 10:04:12;;;;;;;37.20;21.40;;;;;;;4.81;66.19;99628.81;5028406;28;20072;-83
2023/12/09 10:06:58;;;;;;;37.58;21.42;;;;;;;4.80;66.36;99628.00;5023396;28;20471;-80
2023/12/09 10:09:44;;;;;;;37.33;22.70;;;;;;;4.76;66.68;99602.19;5009637;28;20392;-81
2023/12/09 10:12:29;;;;;;;45.65;26.45;;;;;;;4.50;67.43;99610.53;5031621;28;20048;-81
2023/12/09 10:15:15;;;;;;;51.00;30.13;;;;;;;4.47;67.37;99587.22;5023687;28;20056;-81
2023/12/09 10:18:03;;;;;;;46.20;26.55;;;;;;;4.79;67.33;99604.47;5030747;28;20392;-81
2023/12/09 10:20:48;;;;;;;40.42;22.55;;;;;;;4.89;66.29;99602.38;5037182;28;20048;-81
2023/12/09 10:23:35;;;;;;;44.65;25.52;;;;;;;4.88;66.52;99593.63;5030629;28;20059;-81
2023/12/09 10:26:20;;;;;;;49.08;28.05;;;;;;;4.78;66.92;99595.75;5037239;28;20044;-80
2023/12/09 10:29:07;;;;;;;49.47;26.10;;;;;;;4.44;67.37;99588.41;5029593;28;20056;-80
2023/12/09 10:31:52;;;;;;;40.88;24.92;;;;;;;4.44;67.75;99601.56;5024081;28;20499;-81
2023/12/09 10:34:38;;;;;;;39.30;22.95;;;;;;;4.50;67.59;99590.31;5008498;28;20072;-81
2023/12/09 10:37:24;;;;;;;37.00;21.98;;;;;;;4.55;67.84;99585.31;5029960;28;20471;-83
2023/12/09 10:40:10;;;;;;;41.58;22.02;;;;;;;4.55;65.88;99577.44;5030158;28;20396;-80
2023/12/09 10:42:56;;;;;;;48.88;26.58;;;;;;;4.66;66.53;99588.50;5023581;28;20392;-79
2023/12/09 10:45:42;;;;;;;37.85;22.67;;;;;;;4.40;67.28;99580.03;5036899;28;20167;-81
2023/12/09 10:48:29;;;;;;;37.95;21.38;;;;;;;4.45;66.82;99583.94;5030514;28;20452;-82
2023/12/09 10:51:14;;;;;;;36.10;22.13;;;;;;;4.39;67.17;99569.72;5028383;28;20056;-82
2023/12/09 10:53:59;;;;;;;39.35;22.63;;;;;;;4.54;66.95;99581.03;5022573;28;20064;-79
2023/12/09 10:56:45;;;;;;;41.03;23.23;;;;;;;4.58;66.60;99571.00;5031080;28;20052;-80
2023/12/09 10:59:32;;;;;;;40.80;23.10;;;;;;;4.60;66.71;99569.78;5030148;28;20111;-80
2023/12/09 11:02:18;;;;;;;36.88;20.77;;;;;;;4.29;67.90;99577.03;5036032;28;20396;-82
2023/12/09 11:05:06;;;;;;;36.95;20.92;;;;;;;4.32;67.39;99577.50;5020502;28;20499;-81
2023/12/09 11:07:52;;;;;;;37.35;21.63;;;;;;;4.17;68.03;99576.69;5022515;28;21739;-80
2023/12/09 11:10:38;;;;;;;36.20;21.02;;;;;;;4.17;68.30;99579.31;5022116;28;20472;-81
2023/12/09 11:13:24;;;;;;;46.42;22.05;;;;;;;4.07;68.98;99563.75;5037451;28;20056;-82
2023/12/09 11:16:18;;;;;;;51.00;27.08;;;;;;;4.08;69.82;99572.50;5022458;28;20416;-81
2023/12/09 11:19:05;;;;;;;60.70;30.47;;;;;;;3.97;70.00;99573.72;5029218;28;20044;-82
2023/12/09 11:21:51;;;;;;;54.70;29.20;;;;;;;4.01;69.80;99558.41;5028327;28;20044;-81
2023/12/09 11:24:37;;;;;;;64.20;32.50;;;;;;;3.99;70.87;99566.50;5030624;28;20416;-80
2023/12/09 11:27:22;;;;;;;62.63;31.02;;;;;;;4.09;70.20;99566.22;5021741;28;20036;-82
2023/12/09 11:30:28;;;;;;;62.85;31.80;;;;;;;4.17;69.43;99558.28;5030810;28;20371;-81
2023/12/09 11:33:13;;;;;;;54.78;30.38;;;;;;;4.16;70.09;99562.69;5014908;28;20063;-83
2023/12/09 11:36:00;;;;;;;65.45;32.10;;;;;;;4.09;70.63;99556.53;5021030;28;20079;-79
2023/12/09 11:38:45;;;;;;;64.22;30.63;;;;;;;3.89;70.92;99552.78;5028814;28;20155;-82
2023/12/09 11:41:32;;;;;;;61.65;31.35;;;;;;;3.99;71.27;99545.44;5015069;28;20052;-81
2023/12/09 11:44:17;;;;;;;71.45;30.65;;;;;;;3.81;71.12;99527.38;5028876;28;20048;-80
2023/12/09 11:47:04;;;;;;;62.03;31.15;;;;;;;3.79;71.68;99546.94;5028021;28;20056;-83
2023/12/09 11:49:50;;;;;;;59.63;28.70;;;;;;;3.87;71.85;99550.31;5014749;28;20052;-79
2023/12/09 11:52:35;;;;;;;53.00;30.05;;;;;;;3.93;70.54;99544.34;5020884;28;20051;-79
2023/12/09 11:55:21;;;;;;;59.63;31.25;;;;;;;3.88;70.99;99535.34;5007137;28;20072;-82
2023/12/09 11:58:07;;;;;;;66.95;34.40;;;;;;;4.05;70.91;99549.19;5021657;28;20064;-78
2023/12/09 12:00:52;;;;;;;52.97;25.95;;;;;;;3.96;70.74;99548.44;5029177;28;20420;-82
2023/12/09 12:03:38;;;;;;;59.97;30.30;;;;;;;3.90;71.53;99530.75;5014514;28;20044;-80
2023/12/09 12:06:24;;;;;;;50.05;25.80;;;;;;;3.73;71.47;99535.34;5014067;28;20040;-79
2023/12/09 12:09:10;;;;;;;48.25;26.15;;;;;;;3.62;71.58;99522.63;5014534;28;20068;-80
2023/12/09 12:11:56;;;;;;;52.45;26.75;;;;;;;3.75;71.38;99522.00;5035324;28;20049;-81
2023/12/09 12:14:41;;;;;;;71.00;35.15;;;;;;;3.83;71.08;99542.97;5021619;28;20075;-80
2023/12/09 12:17:28;;;;;;;55.42;28.25;;;;;;;3.94;70.00;99534.63;5014295;28;20423;-82
2023/12/09 12:20:20;;;;;;;44.50;26.25;;;;;;;3.94;69.63;99532.00;5026798;28;20059;-83
2023/12/09 12:23:06;;;;;;;46.33;25.27;;;;;;;3.78;70.14;99526.91;5021832;28;20068;-79
2023/12/09 12:25:55;;;;;;;62.40;31.77;;;;;;;3.79;70.98;99528.53;5024917;28;20456;-82
2023/12/09 12:28:41;;;;;;;63.75;34.03;;;;;;;3.83;70.53;99517.50;5026134;28;20071;-81
2023/12/09 12:31:27;;;;;;;57.92;31.35;;;;;;;3.86;71.17;99530.28;5026350;28;20357;-82
2023/12/09 12:34:17;;;;;;;51.65;28.48;;;;;;;3.90;71.51;99520.22;5010770;28;20051;-83
2023/12/09 12:37:04;;;;;;;48.55;25.92;;;;;;;3.80;71.13;99519.66;5034410;28;20040;-81
2023/12/09 12:39:49;;;;;;;50.33;27.38;;;;;;;3.81;70.70;99518.66;5036667;28;20519;-79
2023/12/09 12:42:36;;;;;;;50.28;28.35;;;;;;;3.82;71.34;99521.09;5026520;28;20396;-80
2023/12/09 12:45:25;;;;;;;56.03;27.83;;;;;;;3.87;70.77;99525.84;5045982;28;20507;-82
2023/12/09 12:48:12;;;;;;;49.08;27.02;;;;;;;3.78;72.32;99526.91;5012698;28;20052;-81